createdAt,value
2019-01-27T00:00:07.197Z,5.65
2019-01-27T00:01:07.327Z,5.71
2019-01-27T00:02:07.506Z,5.69
2019-01-27T00:03:07.669Z,5.71
2019-01-27T00:04:07.833Z,5.71
2019-01-27T00:05:08.003Z,5.66
2019-01-27T00:06:08.173Z,5.79
2019-01-27T00:07:08.366Z,5.84
2019-01-27T00:08:13.421Z,5.91
2019-01-27T00:09:08.696Z,5.79
2019-01-27T00:10:08.849Z,5.84
2019-01-27T00:11:09.020Z,5.79
2019-01-27T00:12:09.204Z,5.87
2019-01-27T00:13:09.366Z,5.76
2019-01-27T00:14:09.538Z,5.75
2019-01-27T00:15:10.383Z,5.80
2019-01-27T00:16:09.885Z,5.73
2019-01-27T00:17:10.059Z,5.71
2019-01-27T00:18:10.224Z,5.73
2019-01-27T00:19:10.398Z,5.73
2019-01-27T00:20:10.557Z,5.76
2019-01-27T00:21:10.720Z,5.79
2019-01-27T00:22:10.921Z,5.79
2019-01-27T00:23:11.080Z,5.86
2019-01-27T00:24:11.258Z,5.83
2019-01-27T00:25:11.426Z,5.76
2019-01-27T00:26:11.598Z,5.82
2019-01-27T00:27:11.771Z,5.87
2019-01-27T00:28:11.944Z,5.83
2019-01-27T00:29:12.115Z,5.76
2019-01-27T00:30:12.339Z,5.75
2019-01-27T00:31:12.455Z,5.76
2019-01-27T00:32:12.634Z,5.83
2019-01-27T00:33:12.801Z,5.80
2019-01-27T00:34:12.965Z,5.75
2019-01-27T00:35:13.161Z,5.76
2019-01-27T00:36:13.333Z,5.66
2019-01-27T00:37:13.503Z,5.72
2019-01-27T00:38:13.676Z,5.61
2019-01-27T00:39:13.856Z,5.66
2019-01-27T00:40:14.020Z,5.76
2019-01-27T00:41:14.206Z,5.73
2019-01-27T00:42:14.361Z,5.83
2019-01-27T00:43:14.535Z,5.82
2019-01-27T00:44:14.704Z,5.84
2019-01-27T00:45:14.880Z,5.79
2019-01-27T00:46:15.054Z,5.83
2019-01-27T00:47:15.216Z,5.82
2019-01-27T00:48:15.394Z,5.82
2019-01-27T00:49:15.559Z,5.79
2019-01-27T00:50:15.736Z,5.73
2019-01-27T00:51:15.901Z,5.72
2019-01-27T00:52:16.069Z,5.83
2019-01-27T00:53:16.257Z,5.76
2019-01-27T00:54:16.410Z,5.86
2019-01-27T00:55:16.591Z,5.87
2019-01-27T00:56:16.764Z,5.89
2019-01-27T00:57:16.931Z,5.90
2019-01-27T00:58:17.104Z,5.89
2019-01-27T00:59:17.270Z,5.94
2019-01-27T01:00:17.442Z,5.93
2019-01-27T01:01:17.611Z,5.79
2019-01-27T01:02:17.775Z,5.86
2019-01-27T01:03:17.969Z,5.86
2019-01-27T01:04:18.107Z,5.82
2019-01-27T01:05:18.279Z,5.83
2019-01-27T01:06:18.450Z,5.91
2019-01-27T01:07:18.620Z,5.84
2019-01-27T01:08:18.791Z,5.91
2019-01-27T01:09:18.967Z,5.99
2019-01-27T01:10:19.138Z,5.93
2019-01-27T01:11:19.301Z,5.86
2019-01-27T01:12:19.472Z,5.93
2019-01-27T01:13:19.643Z,5.84
2019-01-27T01:14:19.818Z,6.05
2019-01-27T01:15:19.988Z,6.01
2019-01-27T01:16:20.158Z,5.98
2019-01-27T01:17:20.324Z,6.01
2019-01-27T01:18:20.497Z,5.90
2019-01-27T01:19:20.678Z,5.94
2019-01-27T01:20:20.835Z,5.93
2019-01-27T01:21:21.009Z,6.04
2019-01-27T01:22:21.182Z,6.07
2019-01-27T01:23:21.349Z,6.11
2019-01-27T01:24:21.532Z,6.05
2019-01-27T01:25:21.700Z,6.07
2019-01-27T01:26:21.870Z,6.02
2019-01-27T01:27:22.038Z,5.97
2019-01-27T01:28:22.211Z,5.97
2019-01-27T01:29:22.381Z,5.91
2019-01-27T01:30:22.556Z,5.89
2019-01-27T01:31:22.730Z,5.87
2019-01-27T01:32:22.907Z,5.97
2019-01-27T01:33:23.076Z,5.91
2019-01-27T01:34:23.259Z,5.97
2019-01-27T01:35:23.419Z,6.08
2019-01-27T01:36:23.596Z,6.09
2019-01-27T01:37:23.775Z,6.05
2019-01-27T01:38:23.941Z,6.08
2019-01-27T01:39:24.107Z,6.09
2019-01-27T01:40:24.278Z,6.12
2019-01-27T01:41:24.456Z,6.20
2019-01-27T01:42:24.620Z,6.12
2019-01-27T01:43:24.787Z,6.07
2019-01-27T01:44:24.963Z,6.07
2019-01-27T01:45:25.128Z,6.05
2019-01-27T01:46:25.302Z,6.02
2019-01-27T01:47:25.472Z,5.99
2019-01-27T01:48:25.641Z,6.04
2019-01-27T01:49:25.812Z,6.08
2019-01-27T01:50:25.981Z,6.07
2019-01-27T01:51:26.152Z,6.05
2019-01-27T01:52:26.344Z,6.19
2019-01-27T01:53:26.523Z,6.14
2019-01-27T01:54:26.685Z,5.91
2019-01-27T01:55:28.505Z,5.94
2019-01-27T01:56:27.062Z,6.02
2019-01-27T01:57:27.214Z,6.09
2019-01-27T01:58:27.386Z,6.16
2019-01-27T01:59:27.558Z,6.04
2019-01-27T02:00:27.730Z,6.05
2019-01-27T02:01:27.901Z,6.08
2019-01-27T02:02:28.078Z,6.11
2019-01-27T02:03:28.246Z,6.05
2019-01-27T02:04:28.417Z,6.08
2019-01-27T02:05:28.594Z,6.20
2019-01-27T02:06:28.759Z,6.12
2019-01-27T02:07:28.931Z,6.20
2019-01-27T02:08:29.100Z,6.12
2019-01-27T02:09:29.277Z,6.08
2019-01-27T02:10:29.461Z,5.93
2019-01-27T02:11:29.615Z,5.93
2019-01-27T02:12:29.786Z,5.87
2019-01-27T02:13:29.958Z,5.93
2019-01-27T02:14:30.133Z,6.01
2019-01-27T02:15:30.302Z,5.89
2019-01-27T02:16:30.476Z,5.94
2019-01-27T02:17:30.644Z,5.99
2019-01-27T02:18:30.816Z,6.07
2019-01-27T02:19:30.990Z,6.07
2019-01-27T02:20:31.162Z,6.05
2019-01-27T02:21:31.350Z,5.97
2019-01-27T02:22:31.502Z,6.01
2019-01-27T02:23:31.673Z,6.02
2019-01-27T02:24:31.865Z,5.97
2019-01-27T02:25:32.014Z,5.91
2019-01-27T02:26:32.185Z,5.94
2019-01-27T02:27:32.367Z,6.01
2019-01-27T02:28:32.538Z,5.97
2019-01-27T02:29:32.708Z,6.07
2019-01-27T02:30:32.872Z,6.05
2019-01-27T02:31:33.043Z,5.93
2019-01-27T02:32:33.219Z,5.93
2019-01-27T02:33:33.388Z,6.07
2019-01-27T02:34:33.556Z,6.04
2019-01-27T02:35:33.735Z,6.01
2019-01-27T02:36:33.913Z,5.97
2019-01-27T02:37:34.075Z,5.98
2019-01-27T02:38:34.249Z,5.98
2019-01-27T02:39:34.420Z,6.04
2019-01-27T02:40:34.589Z,5.97
2019-01-27T02:41:34.771Z,5.98
2019-01-27T02:42:34.933Z,5.91
2019-01-27T02:43:35.104Z,5.91
2019-01-27T02:44:35.266Z,5.97
2019-01-27T02:45:35.446Z,6.01
2019-01-27T02:46:35.615Z,6.02
2019-01-27T02:47:35.786Z,6.11
2019-01-27T02:48:35.959Z,6.11
2019-01-27T02:49:36.126Z,6.04
2019-01-27T02:50:36.305Z,5.93
2019-01-27T02:51:36.476Z,5.91
2019-01-27T02:52:36.649Z,5.91
2019-01-27T02:53:36.819Z,5.94
2019-01-27T02:54:36.990Z,5.97
2019-01-27T02:55:37.165Z,6.01
2019-01-27T02:56:37.335Z,6.09
2019-01-27T02:57:37.518Z,5.93
2019-01-27T02:58:37.683Z,6.08
2019-01-27T02:59:37.845Z,6.07
2019-01-27T03:00:38.021Z,6.02
2019-01-27T03:01:38.186Z,6.12
2019-01-27T03:02:38.370Z,6.08
2019-01-27T03:03:38.538Z,6.12
2019-01-27T03:04:38.710Z,6.09
2019-01-27T03:05:38.872Z,6.20
2019-01-27T03:06:39.045Z,6.12
2019-01-27T03:07:39.213Z,6.17
2019-01-27T03:08:39.393Z,6.22
2019-01-27T03:09:39.563Z,6.19
2019-01-27T03:10:39.735Z,6.19
2019-01-27T03:11:39.915Z,6.08
2019-01-27T03:12:40.075Z,6.08
2019-01-27T03:13:40.246Z,6.17
2019-01-27T03:14:40.415Z,6.14
2019-01-27T03:15:40.588Z,6.22
2019-01-27T03:16:40.770Z,6.17
2019-01-27T03:17:40.939Z,6.24
2019-01-27T03:18:41.108Z,6.19
2019-01-27T03:19:41.288Z,6.19
2019-01-27T03:20:41.463Z,6.19
2019-01-27T03:21:41.620Z,6.17
2019-01-27T03:22:41.794Z,6.33
2019-01-27T03:23:41.966Z,6.19
2019-01-27T03:24:42.139Z,6.20
2019-01-27T03:25:42.306Z,6.19
2019-01-27T03:26:42.483Z,6.19
2019-01-27T03:27:42.653Z,6.11
2019-01-27T03:28:42.830Z,6.17
2019-01-27T03:29:43.002Z,6.17
2019-01-27T03:30:43.175Z,6.20
2019-01-27T03:31:43.355Z,6.14
2019-01-27T03:32:43.523Z,6.16
2019-01-27T03:33:43.689Z,6.19
2019-01-27T03:34:43.865Z,6.24
2019-01-27T03:35:44.041Z,6.24
2019-01-27T03:36:44.215Z,6.24
2019-01-27T03:37:44.390Z,6.14
2019-01-27T03:38:44.559Z,6.17
2019-01-27T03:39:44.719Z,6.20
2019-01-27T03:40:44.893Z,6.19
2019-01-27T03:41:45.069Z,6.26
2019-01-27T03:42:45.236Z,6.14
2019-01-27T03:43:45.411Z,6.16
2019-01-27T03:44:45.586Z,6.17
2019-01-27T03:45:45.767Z,6.19
2019-01-27T03:46:45.930Z,6.12
2019-01-27T03:47:46.108Z,6.22
2019-01-27T03:48:46.272Z,6.22
2019-01-27T03:49:46.447Z,6.20
2019-01-27T03:50:46.618Z,6.22
2019-01-27T03:51:46.790Z,6.27
2019-01-27T03:52:46.946Z,6.28
2019-01-27T03:53:47.117Z,6.24
2019-01-27T03:54:47.275Z,6.20
2019-01-27T03:55:47.443Z,6.20
2019-01-27T03:56:47.622Z,6.24
2019-01-27T03:57:47.795Z,6.19
2019-01-27T03:58:47.960Z,6.36
2019-01-27T03:59:48.134Z,6.31
2019-01-27T04:00:48.304Z,6.20
2019-01-27T04:01:48.478Z,6.24
2019-01-27T04:02:48.651Z,6.33
2019-01-27T04:03:48.831Z,6.27
2019-01-27T04:04:48.995Z,6.31
2019-01-27T04:05:49.161Z,6.39
2019-01-27T04:06:49.338Z,6.28
2019-01-27T04:07:49.509Z,6.35
2019-01-27T04:08:49.680Z,6.31
2019-01-27T04:09:49.862Z,6.33
2019-01-27T04:10:50.031Z,6.20
2019-01-27T04:11:50.205Z,6.28
2019-01-27T04:12:50.374Z,6.36
2019-01-27T04:13:50.565Z,6.41
2019-01-27T04:14:50.720Z,6.42
2019-01-27T04:15:50.891Z,6.39
2019-01-27T04:16:51.065Z,6.41
2019-01-27T04:17:51.238Z,6.48
2019-01-27T04:18:51.405Z,6.46
2019-01-27T04:19:51.572Z,6.51
2019-01-27T04:20:51.746Z,6.45
2019-01-27T04:21:51.926Z,6.45
2019-01-27T04:22:52.099Z,6.42
2019-01-27T04:23:52.269Z,6.36
2019-01-27T04:24:52.446Z,6.36
2019-01-27T04:25:52.613Z,6.31
2019-01-27T04:26:52.784Z,6.31
2019-01-27T04:27:52.962Z,6.35
2019-01-27T04:28:53.214Z,6.41
2019-01-27T04:29:53.289Z,6.42
2019-01-27T04:30:53.476Z,6.28
2019-01-27T04:31:53.641Z,6.38
2019-01-27T04:32:53.816Z,6.30
2019-01-27T04:33:53.975Z,6.26
2019-01-27T04:34:54.146Z,6.28
2019-01-27T04:35:54.318Z,6.31
2019-01-27T04:36:54.489Z,6.36
2019-01-27T04:37:54.667Z,6.26
2019-01-27T04:38:54.845Z,6.30
2019-01-27T04:39:55.013Z,6.33
2019-01-27T04:40:55.180Z,6.35
2019-01-27T04:41:55.353Z,6.22
2019-01-27T04:42:55.528Z,6.17
2019-01-27T04:43:56.539Z,6.20
2019-01-27T04:44:55.869Z,6.22
2019-01-27T04:45:56.043Z,6.24
2019-01-27T04:46:56.215Z,6.26
2019-01-27T04:47:56.387Z,6.30
2019-01-27T04:48:56.564Z,6.39
2019-01-27T04:49:56.741Z,6.30
2019-01-27T04:50:56.904Z,6.38
2019-01-27T04:51:57.077Z,6.28
2019-01-27T04:52:57.336Z,6.41
2019-01-27T04:53:57.422Z,6.39
2019-01-27T04:54:57.585Z,6.46
2019-01-27T04:55:57.760Z,6.39
2019-01-27T04:56:57.930Z,6.38
2019-01-27T04:57:58.102Z,6.39
2019-01-27T04:58:58.272Z,6.38
2019-01-27T04:59:58.442Z,6.35
2019-01-27T05:00:58.615Z,6.35
2019-01-27T05:01:58.788Z,6.26
2019-01-27T05:02:58.964Z,6.28
2019-01-27T05:03:59.133Z,6.33
2019-01-27T05:04:59.309Z,6.24
2019-01-27T05:05:59.479Z,6.20
2019-01-27T05:06:59.656Z,6.22
2019-01-27T05:07:59.816Z,6.14
2019-01-27T05:08:59.987Z,6.09
2019-01-27T05:10:00.417Z,6.12
2019-01-27T05:11:00.331Z,6.20
2019-01-27T05:12:00.501Z,6.22
2019-01-27T05:13:00.673Z,6.27
2019-01-27T05:14:00.850Z,6.24
2019-01-27T05:15:01.005Z,6.24
2019-01-27T05:16:01.179Z,6.33
2019-01-27T05:17:01.352Z,6.30
2019-01-27T05:18:01.524Z,6.31
2019-01-27T05:19:01.694Z,6.30
2019-01-27T05:20:01.870Z,6.31
2019-01-27T05:21:02.041Z,6.31
2019-01-27T05:22:02.213Z,6.31
2019-01-27T05:23:02.402Z,6.30
2019-01-27T05:24:02.552Z,6.26
2019-01-27T05:25:02.725Z,6.24
2019-01-27T05:26:02.896Z,6.31
2019-01-27T05:27:03.076Z,6.33
2019-01-27T05:28:03.230Z,6.30
2019-01-27T05:29:03.411Z,6.28
2019-01-27T05:30:03.575Z,6.28
2019-01-27T05:31:03.748Z,6.14
2019-01-27T05:32:03.920Z,6.30
2019-01-27T05:33:04.834Z,6.41
2019-01-27T05:34:04.258Z,6.36
2019-01-27T05:35:04.445Z,6.28
2019-01-27T05:36:04.610Z,6.31
2019-01-27T05:37:04.774Z,6.33
2019-01-27T05:38:04.946Z,6.31
2019-01-27T05:39:05.115Z,6.31
2019-01-27T05:40:05.286Z,6.28
2019-01-27T05:41:05.450Z,6.22
2019-01-27T05:42:05.642Z,6.24
2019-01-27T05:43:05.794Z,6.27
2019-01-27T05:44:05.970Z,6.09
2019-01-27T05:45:06.140Z,6.07
2019-01-27T05:46:06.764Z,6.05
2019-01-27T05:47:06.485Z,6.16
2019-01-27T05:48:06.663Z,6.20
2019-01-27T05:49:06.829Z,6.16
2019-01-27T05:50:06.992Z,6.16
2019-01-27T05:51:07.162Z,6.09
2019-01-27T05:52:07.331Z,6.08
2019-01-27T05:53:07.497Z,6.12
2019-01-27T05:54:07.661Z,6.01
2019-01-27T05:55:07.839Z,6.05
2019-01-27T05:56:08.018Z,6.07
2019-01-27T05:57:08.193Z,6.01
2019-01-27T05:58:08.362Z,5.98
2019-01-27T05:59:08.532Z,6.08
2019-01-27T06:00:08.705Z,6.01
2019-01-27T06:01:08.878Z,5.98
2019-01-27T06:02:09.039Z,5.91
2019-01-27T06:03:09.209Z,5.93
2019-01-27T06:04:09.384Z,5.99
2019-01-27T06:05:09.555Z,6.07
2019-01-27T06:06:09.725Z,6.09
2019-01-27T06:07:09.896Z,6.08
2019-01-27T06:08:10.066Z,6.11
2019-01-27T06:09:10.254Z,6.04
2019-01-27T06:10:10.412Z,6.08
2019-01-27T06:11:10.587Z,6.05
2019-01-27T06:12:10.762Z,5.94
2019-01-27T06:13:10.930Z,5.84
2019-01-27T06:14:11.102Z,5.93
2019-01-27T06:15:11.271Z,5.89
2019-01-27T06:16:11.443Z,5.93
2019-01-27T06:17:11.624Z,5.99
2019-01-27T06:18:11.809Z,5.99
2019-01-27T06:19:11.958Z,5.93
2019-01-27T06:20:12.123Z,5.98
2019-01-27T06:21:12.299Z,5.87
2019-01-27T06:22:12.466Z,6.01
2019-01-27T06:23:12.631Z,5.94
2019-01-27T06:24:12.801Z,5.90
2019-01-27T06:25:12.979Z,6.02
2019-01-27T06:26:13.151Z,6.01
2019-01-27T06:27:13.324Z,5.86
2019-01-27T06:28:13.518Z,5.84
2019-01-27T06:29:13.661Z,5.93
2019-01-27T06:30:13.831Z,5.90
2019-01-27T06:31:13.994Z,5.97
2019-01-27T06:32:14.168Z,5.93
2019-01-27T06:33:14.384Z,5.83
2019-01-27T06:34:14.519Z,5.87
2019-01-27T06:35:14.680Z,5.90
2019-01-27T06:36:14.858Z,5.90
2019-01-27T06:37:15.027Z,5.90
2019-01-27T06:38:15.210Z,5.93
2019-01-27T06:39:15.368Z,5.87
2019-01-27T06:40:15.545Z,5.73
2019-01-27T06:41:15.714Z,5.89
2019-01-27T06:42:15.885Z,5.73
2019-01-27T06:43:16.062Z,5.86
2019-01-27T06:44:16.225Z,5.93
2019-01-27T06:45:16.390Z,5.72
2019-01-27T06:47:16.737Z,5.82
2019-01-27T06:48:16.913Z,5.90
2019-01-27T06:49:17.074Z,5.90
2019-01-27T06:50:17.246Z,5.83
2019-01-27T06:51:17.419Z,5.90
2019-01-27T06:52:17.591Z,5.99
2019-01-27T06:53:17.767Z,5.98
2019-01-27T06:54:17.934Z,5.91
2019-01-27T06:55:18.110Z,5.89
2019-01-27T06:56:18.278Z,5.91
2019-01-27T06:57:18.450Z,5.89
2019-01-27T06:58:18.623Z,5.97
2019-01-27T06:59:18.796Z,5.91
2019-01-27T07:00:18.971Z,5.86
2019-01-27T07:01:19.139Z,5.98
2019-01-27T07:02:19.311Z,5.91
2019-01-27T07:03:19.487Z,5.99
2019-01-27T07:04:19.658Z,5.87
2019-01-27T07:05:19.820Z,5.94
2019-01-27T07:06:20.000Z,5.90
2019-01-27T07:07:20.171Z,5.90
2019-01-27T07:08:20.345Z,6.02
2019-01-27T07:09:20.518Z,5.93
2019-01-27T07:10:20.689Z,6.05
2019-01-27T07:11:20.862Z,5.98
2019-01-27T07:12:21.043Z,6.12
2019-01-27T07:13:21.223Z,5.99
2019-01-27T07:14:21.369Z,5.97
2019-01-27T07:15:21.538Z,6.07
2019-01-27T07:16:21.715Z,6.07
2019-01-27T07:17:21.881Z,6.07
2019-01-27T07:18:22.063Z,6.14
2019-01-27T07:19:22.232Z,6.11
2019-01-27T07:20:22.395Z,6.12
2019-01-27T07:21:22.568Z,6.19
2019-01-27T07:22:22.741Z,6.08
2019-01-27T07:23:22.909Z,6.14
2019-01-27T07:24:23.079Z,6.12
2019-01-27T07:25:23.250Z,6.22
2019-01-27T07:26:23.422Z,6.19
2019-01-27T07:27:23.593Z,6.20
2019-01-27T07:28:23.763Z,6.16
2019-01-27T07:29:23.930Z,6.16
2019-01-27T07:30:24.111Z,6.17
2019-01-27T07:31:24.273Z,6.20
2019-01-27T07:32:24.444Z,6.12
2019-01-27T07:33:24.610Z,6.19
2019-01-27T07:34:24.786Z,6.17
2019-01-27T07:35:24.960Z,6.24
2019-01-27T07:36:25.132Z,6.20
2019-01-27T07:37:25.303Z,6.27
2019-01-27T07:38:25.475Z,6.19
2019-01-27T07:39:25.648Z,6.30
2019-01-27T07:40:25.816Z,6.27
2019-01-27T07:41:25.992Z,6.27
2019-01-27T07:42:26.157Z,6.20
2019-01-27T07:43:26.329Z,6.24
2019-01-27T07:44:26.499Z,6.16
2019-01-27T07:45:26.670Z,6.24
2019-01-27T07:46:26.843Z,6.22
2019-01-27T07:47:27.013Z,6.31
2019-01-27T07:48:27.183Z,6.19
2019-01-27T07:49:27.364Z,6.19
2019-01-27T07:50:27.533Z,6.28
2019-01-27T07:51:27.700Z,6.31
2019-01-27T07:52:27.870Z,6.27
2019-01-27T07:53:28.033Z,6.33
2019-01-27T07:54:28.216Z,6.26
2019-01-27T07:55:28.397Z,6.30
2019-01-27T07:56:28.555Z,6.28
2019-01-27T07:57:28.722Z,6.33
2019-01-27T07:58:28.892Z,6.24
2019-01-27T07:59:29.066Z,6.28
2019-01-27T08:00:29.237Z,6.33
2019-01-27T08:01:29.414Z,6.30
2019-01-27T08:02:29.588Z,6.27
2019-01-27T08:03:29.770Z,6.24
2019-01-27T08:04:29.924Z,6.42
2019-01-27T08:05:30.104Z,6.35
2019-01-27T08:06:30.283Z,6.41
2019-01-27T08:07:30.454Z,6.36
2019-01-27T08:08:30.630Z,6.38
2019-01-27T08:09:30.808Z,6.39
2019-01-27T08:10:30.973Z,6.36
2019-01-27T08:11:31.151Z,6.42
2019-01-27T08:12:31.317Z,6.42
2019-01-27T08:13:31.489Z,6.39
2019-01-27T08:14:31.670Z,6.46
2019-01-27T08:15:31.831Z,6.46
2019-01-27T08:16:31.994Z,6.39
2019-01-27T08:17:32.192Z,6.39
2019-01-27T08:18:32.342Z,6.46
2019-01-27T08:19:32.507Z,6.56
2019-01-27T08:20:32.681Z,6.44
2019-01-27T08:21:32.848Z,6.51
2019-01-27T08:22:33.045Z,6.59
2019-01-27T08:23:33.188Z,6.62
2019-01-27T08:24:33.361Z,6.39
2019-01-27T08:25:33.536Z,6.45
2019-01-27T08:26:33.718Z,6.48
2019-01-27T08:27:33.871Z,6.38
2019-01-27T08:28:34.874Z,6.46
2019-01-27T08:29:34.187Z,6.44
2019-01-27T08:30:34.365Z,6.44
2019-01-27T08:31:34.539Z,6.44
2019-01-27T08:32:34.704Z,6.56
2019-01-27T08:33:34.877Z,6.56
2019-01-27T08:34:35.047Z,6.60
2019-01-27T08:35:35.214Z,6.63
2019-01-27T08:36:35.388Z,6.54
2019-01-27T08:37:35.559Z,6.57
2019-01-27T08:38:35.725Z,6.60
2019-01-27T08:39:35.912Z,6.59
2019-01-27T08:40:36.071Z,6.52
2019-01-27T08:41:36.253Z,6.57
2019-01-27T08:42:36.414Z,6.54
2019-01-27T08:43:36.585Z,6.57
2019-01-27T08:44:36.781Z,6.56
2019-01-27T08:45:36.931Z,6.52
2019-01-27T08:46:37.099Z,6.57
2019-01-27T08:47:37.271Z,6.60
2019-01-27T08:48:37.447Z,6.64
2019-01-27T08:49:37.620Z,6.74
2019-01-27T08:50:37.791Z,6.66
2019-01-27T08:51:37.963Z,6.70
2019-01-27T08:52:38.142Z,6.66
2019-01-27T08:53:38.318Z,6.69
2019-01-27T08:54:38.503Z,6.69
2019-01-27T08:55:40.261Z,6.63
2019-01-27T08:56:38.836Z,6.64
2019-01-27T08:57:39.010Z,6.78
2019-01-27T08:58:39.189Z,6.69
2019-01-27T08:59:39.349Z,6.70
2019-01-27T09:00:39.528Z,6.67
2019-01-27T09:01:39.716Z,6.67
2019-01-27T09:02:39.894Z,6.66
2019-01-27T09:03:40.050Z,6.77
2019-01-27T09:04:40.222Z,6.79
2019-01-27T09:05:40.391Z,6.77
2019-01-27T09:06:40.575Z,6.82
2019-01-27T09:07:40.778Z,6.87
2019-01-27T09:08:40.909Z,6.88
2019-01-27T09:09:41.079Z,6.84
2019-01-27T09:10:41.249Z,6.85
2019-01-27T09:11:41.425Z,6.93
2019-01-27T09:12:41.610Z,6.84
2019-01-27T09:13:41.762Z,6.88
2019-01-27T09:14:41.973Z,6.89
2019-01-27T09:15:42.109Z,6.89
2019-01-27T09:16:42.291Z,6.88
2019-01-27T09:17:42.443Z,6.96
2019-01-27T09:18:42.630Z,6.89
2019-01-27T09:19:42.793Z,6.87
2019-01-27T09:20:42.961Z,6.92
2019-01-27T09:21:43.135Z,7.03
2019-01-27T09:22:43.299Z,6.89
2019-01-27T09:23:43.473Z,7.05
2019-01-27T09:24:43.647Z,7.05
2019-01-27T09:25:43.827Z,6.99
2019-01-27T09:26:43.993Z,7.07
2019-01-27T09:27:44.175Z,7.13
2019-01-27T09:28:44.331Z,7.14
2019-01-27T09:29:44.511Z,7.10
2019-01-27T09:30:44.687Z,7.10
2019-01-27T09:31:44.846Z,7.10
2019-01-27T09:32:45.017Z,7.11
2019-01-27T09:33:45.199Z,7.05
2019-01-27T09:34:45.374Z,7.10
2019-01-27T09:35:45.549Z,7.10
2019-01-27T09:36:45.713Z,7.07
2019-01-27T09:37:45.884Z,7.17
2019-01-27T09:38:46.059Z,7.06
2019-01-27T09:39:46.230Z,7.20
2019-01-27T09:40:46.396Z,7.28
2019-01-27T09:41:46.565Z,7.17
2019-01-27T09:42:46.723Z,7.25
2019-01-27T09:43:46.903Z,7.28
2019-01-27T09:44:47.077Z,7.20
2019-01-27T09:45:57.612Z,7.17
2019-01-27T09:46:47.424Z,7.21
2019-01-27T09:47:47.605Z,7.24
2019-01-27T09:48:47.773Z,7.21
2019-01-27T09:49:47.941Z,7.31
2019-01-27T09:50:48.121Z,7.28
2019-01-27T09:51:48.289Z,7.29
2019-01-27T09:52:48.446Z,7.25
2019-01-27T09:53:48.614Z,7.18
2019-01-27T09:54:48.784Z,7.31
2019-01-27T09:55:48.937Z,7.24
2019-01-27T09:56:49.109Z,7.28
2019-01-27T09:57:49.277Z,7.25
2019-01-27T09:58:49.455Z,7.33
2019-01-27T09:59:49.627Z,7.31
2019-01-27T10:00:49.781Z,7.33
2019-01-27T10:01:49.969Z,7.38
2019-01-27T10:02:51.718Z,7.35
2019-01-27T10:03:50.307Z,7.42
2019-01-27T10:04:50.481Z,7.43
2019-01-27T10:05:50.642Z,7.48
2019-01-27T10:06:50.817Z,7.45
2019-01-27T10:07:50.996Z,7.43
2019-01-27T10:08:51.159Z,7.40
2019-01-27T10:09:51.330Z,7.56
2019-01-27T10:10:51.512Z,7.43
2019-01-27T10:11:51.678Z,7.43
2019-01-27T10:12:51.855Z,7.51
2019-01-27T10:13:52.030Z,7.60
2019-01-27T10:14:52.188Z,7.61
2019-01-27T10:15:52.360Z,7.57
2019-01-27T10:16:52.543Z,7.57
2019-01-27T10:17:52.712Z,7.50
2019-01-27T10:18:52.875Z,7.58
2019-01-27T10:19:53.045Z,7.66
2019-01-27T10:20:53.213Z,7.63
2019-01-27T10:21:53.376Z,7.57
2019-01-27T10:22:53.564Z,7.58
2019-01-27T10:23:53.757Z,7.58
2019-01-27T10:24:53.897Z,7.61
2019-01-27T10:25:54.067Z,7.58
2019-01-27T10:26:54.249Z,7.66
2019-01-27T10:27:54.420Z,7.66
2019-01-27T10:28:54.587Z,7.56
2019-01-27T10:29:54.757Z,7.58
2019-01-27T10:30:54.923Z,7.51
2019-01-27T10:31:55.099Z,7.58
2019-01-27T10:32:55.268Z,7.61
2019-01-27T10:33:55.458Z,7.58
2019-01-27T10:34:55.613Z,7.69
2019-01-27T10:35:55.809Z,7.67
2019-01-27T10:36:55.958Z,7.66
2019-01-27T10:37:56.129Z,7.69
2019-01-27T10:38:56.299Z,7.72
2019-01-27T10:39:56.472Z,7.72
2019-01-27T10:40:58.256Z,7.72
2019-01-27T10:41:56.815Z,7.77
2019-01-27T10:42:56.989Z,7.88
2019-01-27T10:43:57.162Z,7.80
2019-01-27T10:44:57.344Z,7.66
2019-01-27T10:45:57.511Z,7.73
2019-01-27T10:46:57.684Z,7.80
2019-01-27T10:47:57.856Z,7.83
2019-01-27T10:48:58.039Z,7.93
2019-01-27T10:49:58.366Z,7.83
2019-01-27T10:50:58.373Z,7.85
2019-01-27T10:51:58.546Z,7.83
2019-01-27T10:52:58.726Z,7.88
2019-01-27T10:53:58.890Z,7.90
2019-01-27T10:54:59.067Z,7.80
2019-01-27T10:55:59.242Z,7.73
2019-01-27T10:56:59.420Z,7.82
2019-01-27T10:57:59.584Z,7.76
2019-01-27T10:58:59.762Z,7.75
2019-01-27T10:59:59.930Z,7.73
2019-01-27T11:01:00.104Z,7.75
2019-01-27T11:02:00.286Z,7.82
2019-01-27T11:03:00.462Z,7.87
2019-01-27T11:04:00.637Z,7.88
2019-01-27T11:05:00.859Z,7.83
2019-01-27T11:06:00.999Z,7.90
2019-01-27T11:07:01.158Z,7.91
2019-01-27T11:08:01.347Z,7.75
2019-01-27T11:09:01.502Z,7.90
2019-01-27T11:10:01.685Z,7.76
2019-01-27T11:11:01.851Z,7.80
2019-01-27T11:12:02.022Z,7.77
2019-01-27T11:13:02.201Z,7.79
2019-01-27T11:14:02.369Z,7.82
2019-01-27T11:15:02.545Z,7.80
2019-01-27T11:16:02.757Z,7.80
2019-01-27T11:17:02.897Z,7.79
2019-01-27T11:18:03.062Z,7.79
2019-01-27T11:19:03.244Z,7.88
2019-01-27T11:20:03.408Z,7.93
2019-01-27T11:21:03.577Z,7.97
2019-01-27T11:22:03.794Z,7.79
2019-01-27T11:23:03.909Z,7.79
2019-01-27T11:24:04.091Z,7.77
2019-01-27T11:25:04.271Z,7.80
2019-01-27T11:26:04.419Z,7.76
2019-01-27T11:27:04.609Z,7.70
2019-01-27T11:28:04.782Z,7.85
2019-01-27T11:29:04.961Z,7.76
2019-01-27T11:30:05.141Z,7.76
2019-01-27T11:31:05.306Z,7.88
2019-01-27T11:32:05.479Z,7.87
2019-01-27T11:33:05.652Z,7.88
2019-01-27T11:34:05.829Z,7.93
2019-01-27T11:35:06.007Z,7.94
2019-01-27T11:36:06.170Z,7.98
2019-01-27T11:37:06.344Z,7.91
2019-01-27T11:38:06.518Z,7.95
2019-01-27T11:39:06.701Z,7.94
2019-01-27T11:40:06.873Z,7.91
2019-01-27T11:41:07.047Z,7.90
2019-01-27T11:42:07.220Z,7.94
2019-01-27T11:43:07.390Z,7.90
2019-01-27T11:44:07.562Z,7.90
2019-01-27T11:45:07.741Z,7.91
2019-01-27T11:46:07.916Z,7.91
2019-01-27T11:47:08.094Z,7.77
2019-01-27T11:48:08.247Z,7.82
2019-01-27T11:49:08.415Z,7.77
2019-01-27T11:50:08.603Z,7.79
2019-01-27T11:51:08.758Z,7.85
2019-01-27T11:52:15.312Z,7.88
2019-01-27T11:53:09.102Z,7.91
2019-01-27T11:54:09.272Z,7.97
2019-01-27T11:55:09.442Z,7.94
2019-01-27T11:56:09.634Z,7.98
2019-01-27T11:57:09.790Z,8.00
2019-01-27T11:58:09.973Z,7.95
2019-01-27T11:59:10.163Z,7.94
2019-01-27T12:00:10.336Z,8.06
2019-01-27T12:01:10.510Z,7.98
2019-01-27T12:02:10.690Z,8.00
2019-01-27T12:03:10.854Z,7.97
2019-01-27T12:04:11.032Z,7.90
2019-01-27T12:05:11.190Z,8.03
2019-01-27T12:06:11.366Z,8.08
2019-01-27T12:07:11.538Z,8.23
2019-01-27T12:08:11.720Z,8.15
2019-01-27T12:09:11.885Z,8.24
2019-01-27T12:10:12.037Z,8.13
2019-01-27T12:11:12.222Z,8.16
2019-01-27T12:12:12.408Z,8.27
2019-01-27T12:13:12.557Z,8.26
2019-01-27T12:14:12.778Z,8.34
2019-01-27T12:15:12.883Z,8.37
2019-01-27T12:16:13.056Z,8.28
2019-01-27T12:17:13.234Z,8.27
2019-01-27T12:18:13.411Z,8.27
2019-01-27T12:19:13.600Z,8.36
2019-01-27T12:20:13.743Z,8.30
2019-01-27T12:21:13.917Z,8.16
2019-01-27T12:22:14.095Z,8.28
2019-01-27T12:23:14.261Z,8.28
2019-01-27T12:24:14.435Z,8.36
2019-01-27T12:25:14.628Z,8.44
2019-01-27T12:26:14.808Z,8.51
2019-01-27T12:27:14.963Z,8.52
2019-01-27T12:28:15.139Z,8.58
2019-01-27T12:29:15.311Z,8.82
2019-01-27T12:30:15.485Z,8.85
2019-01-27T12:31:15.662Z,8.81
2019-01-27T12:32:15.831Z,8.84
2019-01-27T12:33:16.016Z,8.78
2019-01-27T12:34:16.177Z,8.67
2019-01-27T12:35:16.346Z,8.74
2019-01-27T12:36:16.553Z,8.64
2019-01-27T12:37:16.701Z,8.61
2019-01-27T12:38:16.875Z,8.56
2019-01-27T12:39:17.038Z,8.60
2019-01-27T12:40:17.211Z,8.51
2019-01-27T12:41:17.410Z,8.48
2019-01-27T12:42:17.686Z,8.53
2019-01-27T12:43:17.763Z,8.49
2019-01-27T12:44:17.923Z,8.53
2019-01-27T12:45:18.098Z,8.52
2019-01-27T12:46:18.270Z,8.49
2019-01-27T12:47:18.447Z,8.49
2019-01-27T12:48:18.605Z,8.45
2019-01-27T12:49:18.798Z,8.51
2019-01-27T12:50:18.970Z,8.60
2019-01-27T12:51:19.145Z,8.49
2019-01-27T12:52:19.315Z,8.49
2019-01-27T12:53:19.476Z,8.52
2019-01-27T12:54:19.655Z,8.52
2019-01-27T12:55:19.834Z,8.64
2019-01-27T12:56:20.002Z,8.58
2019-01-27T12:57:20.176Z,8.61
2019-01-27T12:58:20.352Z,8.58
2019-01-27T12:59:21.495Z,8.61
2019-01-27T13:00:20.694Z,8.55
2019-01-27T13:01:20.866Z,8.61
2019-01-27T13:02:21.055Z,8.66
2019-01-27T13:03:21.595Z,8.67
2019-01-27T13:04:21.394Z,8.63
2019-01-27T13:05:21.562Z,8.64
2019-01-27T13:06:21.740Z,8.58
2019-01-27T13:07:21.935Z,8.49
2019-01-27T13:08:22.085Z,8.52
2019-01-27T13:09:22.264Z,8.55
2019-01-27T13:10:22.440Z,8.51
2019-01-27T13:11:22.642Z,8.44
2019-01-27T13:12:22.794Z,8.45
2019-01-27T13:13:22.975Z,8.36
2019-01-27T13:14:23.142Z,8.38
2019-01-27T13:15:23.329Z,8.27
2019-01-27T13:16:23.519Z,8.36
2019-01-27T13:17:23.667Z,8.45
2019-01-27T13:18:23.842Z,8.31
2019-01-27T13:19:24.020Z,8.28
2019-01-27T13:20:24.181Z,8.26
2019-01-27T13:21:24.374Z,8.36